createdAt,value
2016-12-07T00:01:08.716Z,0
2016-12-07T00:06:13.129Z,0
2016-12-07T00:11:17.208Z,0
2016-12-07T00:16:21.295Z,0
2016-12-07T00:21:26.060Z,0
2016-12-07T00:26:30.150Z,0
2016-12-07T00:31:34.250Z,0
2016-12-07T00:36:38.672Z,0
2016-12-07T00:41:42.761Z,0
2016-12-07T00:46:47.180Z,0
2016-12-07T00:51:51.266Z,0
2016-12-07T00:56:56.018Z,0
2016-12-07T01:02:00.102Z,0
2016-12-07T01:07:04.193Z,0
2016-12-07T01:12:08.615Z,0
2016-12-07T01:17:12.707Z,0
2016-12-07T01:22:16.800Z,0
2016-12-07T01:27:20.890Z,0
2016-12-07T01:32:25.319Z,0
2016-12-07T01:37:29.744Z,0
2016-12-07T01:42:34.167Z,0
2016-12-07T01:47:38.933Z,0
2016-12-07T01:52:43.026Z,0
2016-12-07T01:57:47.112Z,0
2016-12-07T02:02:51.211Z,0
2016-12-07T02:07:55.632Z,0
2016-12-07T02:12:59.715Z,0
2016-12-07T02:18:04.461Z,0
2016-12-07T02:23:08.544Z,0
2016-12-07T02:28:12.623Z,0
2016-12-07T02:33:17.042Z,0
2016-12-07T02:38:21.119Z,0
2016-12-07T02:43:25.536Z,0
2016-12-07T02:48:29.953Z,0
2016-12-07T02:53:34.039Z,0
2016-12-07T02:58:38.124Z,0
2016-12-07T03:03:42.879Z,0
2016-12-07T03:08:47.294Z,0
2016-12-07T03:13:51.376Z,0
2016-12-07T03:18:55.800Z,0
2016-12-07T03:23:59.883Z,0
2016-12-07T03:29:03.970Z,0
2016-12-07T03:34:08.386Z,0
2016-12-07T03:39:12.465Z,0
2016-12-07T03:44:16.548Z,0
2016-12-07T03:49:20.629Z,0
2016-12-07T03:54:24.712Z,0
2016-12-07T03:59:28.791Z,0
2016-12-07T04:04:32.878Z,0
2016-12-07T04:09:36.967Z,0
2016-12-07T04:14:41.051Z,0
2016-12-07T04:19:45.474Z,0
2016-12-07T04:24:49.561Z,0
2016-12-07T04:29:53.673Z,0
2016-12-07T04:34:58.099Z,0
2016-12-07T04:40:02.515Z,0
2016-12-07T04:45:06.936Z,0
2016-12-07T04:50:11.012Z,0
2016-12-07T04:55:15.099Z,0
2016-12-07T05:00:19.522Z,0
2016-12-07T05:05:23.948Z,0
2016-12-07T05:10:28.032Z,0
2016-12-07T05:15:32.679Z,0
2016-12-07T05:20:37.430Z,0
2016-12-07T05:25:41.512Z,0
2016-12-07T05:30:45.930Z,0
2016-12-07T05:35:50.372Z,0
2016-12-07T05:40:54.465Z,0
2016-12-07T05:45:59.225Z,0
2016-12-07T05:51:04.176Z,0
2016-12-07T05:56:08.285Z,0
2016-12-07T06:01:12.362Z,0
2016-12-07T06:06:16.443Z,0
2016-12-07T06:11:20.864Z,0
2016-12-07T06:16:24.958Z,0
2016-12-07T06:21:29.042Z,0
2016-12-07T06:26:33.124Z,3
2016-12-07T06:31:37.913Z,0
2016-12-07T06:36:41.999Z,0
2016-12-07T06:41:46.095Z,0
2016-12-07T06:46:50.512Z,0
2016-12-07T06:51:54.615Z,1
2016-12-07T06:56:59.023Z,1
2016-12-07T07:02:03.105Z,1
2016-12-07T07:07:07.864Z,3
2016-12-07T07:12:11.943Z,6
2016-12-07T07:17:16.026Z,10
2016-12-07T07:22:20.442Z,10
2016-12-07T07:27:24.527Z,10
2016-12-07T07:32:28.949Z,12
2016-12-07T07:37:33.375Z,16
2016-12-07T07:42:37.456Z,24
2016-12-07T07:47:41.548Z,39
2016-12-07T07:52:45.631Z,63
2016-12-07T07:57:50.052Z,71
2016-12-07T08:02:54.137Z,71
2016-12-07T08:07:58.222Z,101
2016-12-07T08:13:02.979Z,127
2016-12-07T08:18:07.399Z,175
2016-12-07T08:23:12.147Z,175
2016-12-07T08:28:16.229Z,188
2016-12-07T08:33:20.651Z,172
2016-12-07T08:38:25.076Z,168
2016-12-07T08:43:29.159Z,162
2016-12-07T08:48:33.584Z,191
2016-12-07T08:53:37.669Z,201
2016-12-07T08:58:41.759Z,211
2016-12-07T09:03:45.851Z,281
2016-12-07T09:08:49.935Z,282
2016-12-07T09:13:54.691Z,183
2016-12-07T09:18:59.110Z,141
2016-12-07T09:24:03.195Z,209
2016-12-07T09:29:07.949Z,265
2016-12-07T09:34:12.708Z,266
2016-12-07T09:39:16.796Z,292
2016-12-07T09:44:20.879Z,216
2016-12-07T09:49:24.964Z,209
2016-12-07T09:54:29.382Z,216
2016-12-07T09:59:34.136Z,272
2016-12-07T10:04:38.233Z,304
2016-12-07T10:09:42.661Z,329
2016-12-07T10:14:47.092Z,384
2016-12-07T10:19:51.846Z,464
2016-12-07T10:24:55.935Z,634
2016-12-07T10:30:00.689Z,459
2016-12-07T10:35:04.793Z,451
2016-12-07T10:40:08.885Z,510
2016-12-07T10:45:12.970Z,407
2016-12-07T10:50:17.389Z,400
2016-12-07T10:55:21.470Z,376
2016-12-07T11:00:25.552Z,424
2016-12-07T11:05:29.978Z,422
2016-12-07T11:10:34.064Z,381
2016-12-07T11:15:38.485Z,319
2016-12-07T11:20:42.572Z,418
2016-12-07T11:25:46.659Z,497
2016-12-07T11:30:50.744Z,553
2016-12-07T11:35:54.839Z,491
2016-12-07T11:40:59.022Z,540
2016-12-07T11:46:03.111Z,451
2016-12-07T11:51:07.211Z,390
2016-12-07T11:56:11.290Z,381
2016-12-07T12:01:15.713Z,365
2016-12-07T12:06:19.807Z,332
2016-12-07T12:11:23.897Z,315
2016-12-07T12:16:28.320Z,252
2016-12-07T12:21:32.404Z,299
2016-12-07T12:26:36.496Z,383
2016-12-07T12:31:40.581Z,371
2016-12-07T12:36:45.000Z,334
2016-12-07T12:41:49.086Z,292
2016-12-07T12:46:53.892Z,250
2016-12-07T12:51:57.981Z,270
2016-12-07T12:57:02.758Z,255
2016-12-07T13:02:07.183Z,293
2016-12-07T13:07:11.601Z,321
2016-12-07T13:12:15.699Z,293
2016-12-07T13:17:20.030Z,242
2016-12-07T13:22:24.554Z,235
2016-12-07T13:27:28.658Z,240
2016-12-07T13:32:32.813Z,196
2016-12-07T13:37:36.918Z,174
2016-12-07T13:42:41.305Z,163
2016-12-07T13:47:45.465Z,170
2016-12-07T13:52:49.555Z,146
2016-12-07T13:57:53.975Z,138
2016-12-07T14:02:58.060Z,133
2016-12-07T14:08:02.144Z,122
2016-12-07T14:13:07.235Z,110
2016-12-07T14:18:11.317Z,97
2016-12-07T14:23:15.421Z,83
2016-12-07T14:28:19.955Z,67
2016-12-07T14:33:24.115Z,53
2016-12-07T14:38:28.568Z,39
2016-12-07T14:43:32.667Z,26
2016-12-07T14:48:37.431Z,17
2016-12-07T14:53:41.594Z,13
2016-12-07T14:58:46.020Z,10
2016-12-07T15:03:50.101Z,7
2016-12-07T15:08:54.191Z,5
2016-12-07T15:13:58.282Z,3
2016-12-07T15:19:02.520Z,1
2016-12-07T15:24:06.617Z,2
2016-12-07T15:29:11.043Z,1
2016-12-07T15:34:15.475Z,1
2016-12-07T15:39:19.595Z,0
2016-12-07T15:44:23.687Z,1
2016-12-07T15:49:27.771Z,1
2016-12-07T15:54:31.864Z,1
2016-12-07T15:59:35.999Z,1
2016-12-07T16:04:40.763Z,1
2016-12-07T16:09:45.856Z,1
2016-12-07T16:14:49.958Z,1
2016-12-07T16:19:54.363Z,3
2016-12-07T16:24:58.443Z,1
2016-12-07T16:30:02.531Z,1
2016-12-07T16:35:06.968Z,1
2016-12-07T16:40:11.406Z,1
2016-12-07T16:45:16.174Z,1
2016-12-07T16:50:20.600Z,1
2016-12-07T16:55:24.686Z,1
2016-12-07T17:00:28.770Z,1
2016-12-07T17:05:32.853Z,1
2016-12-07T17:10:36.939Z,1
2016-12-07T17:15:41.362Z,1
2016-12-07T17:20:46.460Z,1
2016-12-07T17:25:50.876Z,1
2016-12-07T17:30:54.958Z,1
2016-12-07T17:35:59.381Z,1
2016-12-07T17:41:03.460Z,1
2016-12-07T17:46:07.546Z,1
2016-12-07T17:51:11.633Z,1
2016-12-07T17:56:16.051Z,1
2016-12-07T18:01:20.128Z,1
2016-12-07T18:06:24.214Z,1
2016-12-07T18:11:28.969Z,1
2016-12-07T18:16:33.397Z,3
2016-12-07T18:21:37.818Z,1
2016-12-07T18:26:41.903Z,1
2016-12-07T18:31:46.664Z,1
2016-12-07T18:36:50.751Z,1
2016-12-07T18:41:54.848Z,1
2016-12-07T18:46:59.937Z,1
2016-12-07T18:52:04.356Z,1
2016-12-07T18:57:08.435Z,1
2016-12-07T19:02:13.196Z,1
2016-12-07T19:07:17.573Z,3
2016-12-07T19:12:21.990Z,1
2016-12-07T19:17:26.408Z,1
2016-12-07T19:22:30.828Z,1
2016-12-07T19:27:35.598Z,1
2016-12-07T19:32:39.685Z,1
2016-12-07T19:37:43.784Z,1
2016-12-07T19:42:48.214Z,1
2016-12-07T19:47:52.290Z,1
2016-12-07T19:52:56.371Z,1
2016-12-07T19:58:00.468Z,1
2016-12-07T20:03:04.558Z,1
2016-12-07T20:08:08.639Z,1
2016-12-07T20:13:13.400Z,1
2016-12-07T20:18:17.824Z,0
2016-12-07T20:23:21.905Z,0
2016-12-07T20:28:26.323Z,0
2016-12-07T20:33:30.414Z,0
2016-12-07T20:38:34.521Z,0
2016-12-07T20:43:39.295Z,0
2016-12-07T20:48:43.380Z,0
2016-12-07T20:53:47.462Z,0
2016-12-07T20:58:51.557Z,0
2016-12-07T21:03:55.998Z,0
2016-12-07T21:09:00.093Z,0
2016-12-07T21:14:04.180Z,0
2016-12-07T21:19:08.616Z,0
2016-12-07T21:24:12.706Z,0
2016-12-07T21:29:16.796Z,0
2016-12-07T21:34:20.884Z,0
2016-12-07T21:39:25.980Z,0
2016-12-07T21:44:30.140Z,0
2016-12-07T21:49:34.566Z,0
2016-12-07T21:54:38.662Z,0
2016-12-07T21:59:42.750Z,0
2016-12-07T22:04:47.164Z,0
2016-12-07T22:09:51.253Z,0
2016-12-07T22:14:55.349Z,0
2016-12-07T22:20:00.117Z,0
2016-12-07T22:25:04.218Z,0
2016-12-07T22:30:08.638Z,0
2016-12-07T22:35:13.069Z,0
2016-12-07T22:40:17.483Z,0
2016-12-07T22:45:21.569Z,0
2016-12-07T22:50:25.993Z,0
2016-12-07T22:55:30.087Z,0
2016-12-07T23:00:34.557Z,0
2016-12-07T23:05:38.979Z,0
2016-12-07T23:10:43.061Z,0
2016-12-07T23:15:47.154Z,0
2016-12-07T23:20:51.236Z,0
2016-12-07T23:25:55.660Z,0
2016-12-07T23:30:59.752Z,0
2016-12-07T23:36:03.841Z,0
2016-12-07T23:41:07.926Z,0
2016-12-07T23:46:12.686Z,0
2016-12-07T23:51:17.102Z,0
2016-12-07T23:56:21.521Z,0
